sensor_id;sensor_type;location;lat;lon;timestamp;temperature;humidity
51007;DHT22;37034;47.886;-3.904;2023-01-28T00:01:09;6.40;92.90
51007;DHT22;37034;47.886;-3.904;2023-01-28T00:03:35;6.40;92.70
51007;DHT22;37034;47.886;-3.904;2023-01-28T00:06:07;6.40;92.70
51007;DHT22;37034;47.886;-3.904;2023-01-28T00:08:33;6.40;92.70
51007;DHT22;37034;47.886;-3.904;2023-01-28T00:11:03;6.40;92.70
51007;DHT22;37034;47.886;-3.904;2023-01-28T00:13:29;6.30;92.90
51007;DHT22;37034;47.886;-3.904;2023-01-28T00:16:00;6.30;92.80
51007;DHT22;37034;47.886;-3.904;2023-01-28T00:18:27;6.30;92.80
51007;DHT22;37034;47.886;-3.904;2023-01-28T00:21:08;6.30;92.90
51007;DHT22;37034;47.886;-3.904;2023-01-28T00:23:35;6.30;93.00
51007;DHT22;37034;47.886;-3.904;2023-01-28T00:26:05;6.30;93.00
51007;DHT22;37034;47.886;-3.904;2023-01-28T00:28:31;6.30;93.00
51007;DHT22;37034;47.886;-3.904;2023-01-28T00:30:57;6.30;93.00
51007;DHT22;37034;47.886;-3.904;2023-01-28T00:33:23;6.30;93.10
51007;DHT22;37034;47.886;-3.904;2023-01-28T00:35:59;6.30;93.00
51007;DHT22;37034;47.886;-3.904;2023-01-28T00:38:26;6.20;93.10
51007;DHT22;37034;47.886;-3.904;2023-01-28T00:40:52;6.20;93.00
51007;DHT22;37034;47.886;-3.904;2023-01-28T00:43:18;6.20;93.30
51007;DHT22;37034;47.886;-3.904;2023-01-28T00:45:44;6.20;93.10
51007;DHT22;37034;47.886;-3.904;2023-01-28T00:48:09;6.30;93.20
51007;DHT22;37034;47.886;-3.904;2023-01-28T00:50:35;6.30;93.40
51007;DHT22;37034;47.886;-3.904;2023-01-28T00:53:01;6.30;93.60
51007;DHT22;37034;47.886;-3.904;2023-01-28T00:55:27;6.30;93.70
51007;DHT22;37034;47.886;-3.904;2023-01-28T00:57:53;6.30;93.70
51007;DHT22;37034;47.886;-3.904;2023-01-28T01:00:19;6.40;93.70
51007;DHT22;37034;47.886;-3.904;2023-01-28T01:02:50;6.40;94.10
51007;DHT22;37034;47.886;-3.904;2023-01-28T01:05:16;6.40;93.90
51007;DHT22;37034;47.886;-3.904;2023-01-28T01:07:41;6.50;93.90
51007;DHT22;37034;47.886;-3.904;2023-01-28T01:10:13;6.50;94.00
51007;DHT22;37034;47.886;-3.904;2023-01-28T01:12:40;6.50;94.00
51007;DHT22;37034;47.886;-3.904;2023-01-28T01:15:06;6.60;93.90
51007;DHT22;37034;47.886;-3.904;2023-01-28T01:17:39;6.60;93.90
51007;DHT22;37034;47.886;-3.904;2023-01-28T01:20:07;6.60;93.80
51007;DHT22;37034;47.886;-3.904;2023-01-28T01:22:35;6.60;93.80
51007;DHT22;37034;47.886;-3.904;2023-01-28T01:25:01;6.60;93.70
51007;DHT22;37034;47.886;-3.904;2023-01-28T01:27:28;6.60;93.80
51007;DHT22;37034;47.886;-3.904;2023-01-28T01:29:54;6.50;93.70
51007;DHT22;37034;47.886;-3.904;2023-01-28T01:32:19;6.50;93.70
51007;DHT22;37034;47.886;-3.904;2023-01-28T01:34:47;6.50;93.90
51007;DHT22;37034;47.886;-3.904;2023-01-28T01:37:12;6.50;93.90
51007;DHT22;37034;47.886;-3.904;2023-01-28T01:39:38;6.50;93.90
51007;DHT22;37034;47.886;-3.904;2023-01-28T01:42:04;6.50;93.90
51007;DHT22;37034;47.886;-3.904;2023-01-28T01:47:15;6.50;93.90
51007;DHT22;37034;47.886;-3.904;2023-01-28T01:49:41;6.50;93.90
51007;DHT22;37034;47.886;-3.904;2023-01-28T01:52:11;6.50;94.00
51007;DHT22;37034;47.886;-3.904;2023-01-28T01:54:40;6.50;94.00
51007;DHT22;37034;47.886;-3.904;2023-01-28T01:57:09;6.50;94.00
51007;DHT22;37034;47.886;-3.904;2023-01-28T01:59:38;6.50;93.90
51007;DHT22;37034;47.886;-3.904;2023-01-28T02:02:06;6.50;93.90
51007;DHT22;37034;47.886;-3.904;2023-01-28T02:04:38;6.40;93.90
51007;DHT22;37034;47.886;-3.904;2023-01-28T02:07:05;6.50;93.90
51007;DHT22;37034;47.886;-3.904;2023-01-28T02:09:34;6.50;94.00
51007;DHT22;37034;47.886;-3.904;2023-01-28T02:12:22;6.50;94.10
51007;DHT22;37034;47.886;-3.904;2023-01-28T02:14:56;6.50;94.20
51007;DHT22;37034;47.886;-3.904;2023-01-28T02:17:23;6.60;94.20
51007;DHT22;37034;47.886;-3.904;2023-01-28T02:19:55;6.60;94.20
51007;DHT22;37034;47.886;-3.904;2023-01-28T02:22:52;6.70;94.30
51007;DHT22;37034;47.886;-3.904;2023-01-28T02:31:26;6.80;94.40
51007;DHT22;37034;47.886;-3.904;2023-01-28T02:34:17;6.80;94.40
51007;DHT22;37034;47.886;-3.904;2023-01-28T02:36:54;6.80;94.40
51007;DHT22;37034;47.886;-3.904;2023-01-28T02:39:35;6.80;94.40
51007;DHT22;37034;47.886;-3.904;2023-01-28T02:42:05;6.90;94.50
51007;DHT22;37034;47.886;-3.904;2023-01-28T02:44:32;6.90;94.40
51007;DHT22;37034;47.886;-3.904;2023-01-28T02:46:57;6.90;94.50
51007;DHT22;37034;47.886;-3.904;2023-01-28T02:49:50;7.00;94.50
51007;DHT22;37034;47.886;-3.904;2023-01-28T02:54:57;7.00;94.40
51007;DHT22;37034;47.886;-3.904;2023-01-28T03:00:28;7.10;94.30
51007;DHT22;37034;47.886;-3.904;2023-01-28T03:03:14;7.00;94.20
51007;DHT22;37034;47.886;-3.904;2023-01-28T03:05:59;7.00;94.20
51007;DHT22;37034;47.886;-3.904;2023-01-28T03:08:39;7.00;94.30
51007;DHT22;37034;47.886;-3.904;2023-01-28T03:11:25;7.10;94.30
51007;DHT22;37034;47.886;-3.904;2023-01-28T03:14:11;7.10;94.40
51007;DHT22;37034;47.886;-3.904;2023-01-28T03:16:58;7.10;94.40
51007;DHT22;37034;47.886;-3.904;2023-01-28T03:19:44;7.20;94.40
51007;DHT22;37034;47.886;-3.904;2023-01-28T03:22:28;7.20;94.40
51007;DHT22;37034;47.886;-3.904;2023-01-28T03:25:14;7.20;94.40
51007;DHT22;37034;47.886;-3.904;2023-01-28T03:28:04;7.20;94.40
51007;DHT22;37034;47.886;-3.904;2023-01-28T03:30:57;7.30;94.70
51007;DHT22;37034;47.886;-3.904;2023-01-28T03:33:44;7.30;94.50
51007;DHT22;37034;47.886;-3.904;2023-01-28T03:36:29;7.30;94.50
51007;DHT22;37034;47.886;-3.904;2023-01-28T03:39:15;7.40;94.60
51007;DHT22;37034;47.886;-3.904;2023-01-28T03:41:41;7.40;94.50
51007;DHT22;37034;47.886;-3.904;2023-01-28T03:44:07;7.40;94.60
51007;DHT22;37034;47.886;-3.904;2023-01-28T03:46:51;7.40;94.50
51007;DHT22;37034;47.886;-3.904;2023-01-28T03:49:17;7.50;94.50
51007;DHT22;37034;47.886;-3.904;2023-01-28T03:51:43;7.50;94.50
51007;DHT22;37034;47.886;-3.904;2023-01-28T03:54:10;7.50;94.50
51007;DHT22;37034;47.886;-3.904;2023-01-28T03:56:36;7.50;94.50
51007;DHT22;37034;47.886;-3.904;2023-01-28T03:59:05;7.50;94.40
51007;DHT22;37034;47.886;-3.904;2023-01-28T04:01:30;7.50;94.50
51007;DHT22;37034;47.886;-3.904;2023-01-28T04:03:56;7.50;94.60
51007;DHT22;37034;47.886;-3.904;2023-01-28T04:06:22;7.50;94.60
51007;DHT22;37034;47.886;-3.904;2023-01-28T04:08:47;7.50;94.60
51007;DHT22;37034;47.886;-3.904;2023-01-28T04:11:18;7.50;94.60
51007;DHT22;37034;47.886;-3.904;2023-01-28T04:13:47;7.50;94.60
51007;DHT22;37034;47.886;-3.904;2023-01-28T04:16:14;7.50;94.60
51007;DHT22;37034;47.886;-3.904;2023-01-28T04:18:42;7.60;94.70
51007;DHT22;37034;47.886;-3.904;2023-01-28T04:21:07;7.60;94.70
51007;DHT22;37034;47.886;-3.904;2023-01-28T04:23:33;7.70;94.70
51007;DHT22;37034;47.886;-3.904;2023-01-28T04:25:59;7.70;94.60
51007;DHT22;37034;47.886;-3.904;2023-01-28T04:28:24;7.70;94.60
51007;DHT22;37034;47.886;-3.904;2023-01-28T04:30:53;7.70;94.60
51007;DHT22;37034;47.886;-3.904;2023-01-28T04:33:19;7.70;94.50
51007;DHT22;37034;47.886;-3.904;2023-01-28T04:35:44;7.70;94.50
51007;DHT22;37034;47.886;-3.904;2023-01-28T04:38:10;7.80;94.60
51007;DHT22;37034;47.886;-3.904;2023-01-28T04:40:36;7.70;94.50
51007;DHT22;37034;47.886;-3.904;2023-01-28T04:43:01;7.70;94.60
51007;DHT22;37034;47.886;-3.904;2023-01-28T04:45:27;7.80;94.60
51007;DHT22;37034;47.886;-3.904;2023-01-28T04:47:53;7.80;94.60
51007;DHT22;37034;47.886;-3.904;2023-01-28T04:50:19;7.80;94.50
51007;DHT22;37034;47.886;-3.904;2023-01-28T04:52:44;7.90;94.50
51007;DHT22;37034;47.886;-3.904;2023-01-28T04:55:10;7.90;94.50
51007;DHT22;37034;47.886;-3.904;2023-01-28T04:57:36;7.80;94.40
51007;DHT22;37034;47.886;-3.904;2023-01-28T05:00:03;7.80;94.40
51007;DHT22;37034;47.886;-3.904;2023-01-28T05:02:30;7.80;94.40
51007;DHT22;37034;47.886;-3.904;2023-01-28T05:04:55;7.90;94.70
51007;DHT22;37034;47.886;-3.904;2023-01-28T05:07:21;7.80;94.30
51007;DHT22;37034;47.886;-3.904;2023-01-28T05:09:46;7.80;94.30
51007;DHT22;37034;47.886;-3.904;2023-01-28T05:12:12;7.80;94.30
51007;DHT22;37034;47.886;-3.904;2023-01-28T05:14:38;7.80;94.20
51007;DHT22;37034;47.886;-3.904;2023-01-28T05:17:03;7.70;94.10
51007;DHT22;37034;47.886;-3.904;2023-01-28T05:19:29;7.70;94.10
51007;DHT22;37034;47.886;-3.904;2023-01-28T05:21:55;7.70;94.10
51007;DHT22;37034;47.886;-3.904;2023-01-28T05:24:20;7.70;94.10
51007;DHT22;37034;47.886;-3.904;2023-01-28T05:26:46;7.70;94.00
51007;DHT22;37034;47.886;-3.904;2023-01-28T05:29:12;7.60;94.00
51007;DHT22;37034;47.886;-3.904;2023-01-28T05:31:37;7.60;93.90
51007;DHT22;37034;47.886;-3.904;2023-01-28T05:34:03;7.60;94.00
51007;DHT22;37034;47.886;-3.904;2023-01-28T05:36:28;7.60;94.10
51007;DHT22;37034;47.886;-3.904;2023-01-28T05:38:54;7.60;94.10
51007;DHT22;37034;47.886;-3.904;2023-01-28T05:41:20;7.60;94.20
51007;DHT22;37034;47.886;-3.904;2023-01-28T05:43:45;7.60;94.30
51007;DHT22;37034;47.886;-3.904;2023-01-28T05:46:11;7.60;94.20
51007;DHT22;37034;47.886;-3.904;2023-01-28T05:48:37;7.60;94.20
51007;DHT22;37034;47.886;-3.904;2023-01-28T05:51:02;7.70;94.30
51007;DHT22;37034;47.886;-3.904;2023-01-28T05:53:29;7.70;94.50
51007;DHT22;37034;47.886;-3.904;2023-01-28T05:55:55;7.70;94.30
51007;DHT22;37034;47.886;-3.904;2023-01-28T05:58:21;7.80;94.20
51007;DHT22;37034;47.886;-3.904;2023-01-28T06:00:47;7.80;94.30
51007;DHT22;37034;47.886;-3.904;2023-01-28T06:03:13;7.80;94.20
51007;DHT22;37034;47.886;-3.904;2023-01-28T06:05:38;7.80;94.10
51007;DHT22;37034;47.886;-3.904;2023-01-28T06:08:05;7.80;94.10
51007;DHT22;37034;47.886;-3.904;2023-01-28T06:10:31;7.90;94.00
51007;DHT22;37034;47.886;-3.904;2023-01-28T06:12:56;7.90;94.00
51007;DHT22;37034;47.886;-3.904;2023-01-28T06:15:22;7.90;94.00
51007;DHT22;37034;47.886;-3.904;2023-01-28T06:17:48;7.90;93.80
51007;DHT22;37034;47.886;-3.904;2023-01-28T06:20:14;7.90;93.90
51007;DHT22;37034;47.886;-3.904;2023-01-28T06:22:41;7.90;93.70
51007;DHT22;37034;47.886;-3.904;2023-01-28T06:25:07;7.90;93.60
51007;DHT22;37034;47.886;-3.904;2023-01-28T06:27:33;7.90;93.70
51007;DHT22;37034;47.886;-3.904;2023-01-28T06:29:58;7.90;93.70
51007;DHT22;37034;47.886;-3.904;2023-01-28T06:32:24;8.00;93.70
51007;DHT22;37034;47.886;-3.904;2023-01-28T06:34:50;7.90;93.60
51007;DHT22;37034;47.886;-3.904;2023-01-28T06:37:16;7.90;93.70
51007;DHT22;37034;47.886;-3.904;2023-01-28T06:39:42;8.00;93.30
51007;DHT22;37034;47.886;-3.904;2023-01-28T06:42:07;7.90;93.50
51007;DHT22;37034;47.886;-3.904;2023-01-28T06:44:33;8.00;93.70
51007;DHT22;37034;47.886;-3.904;2023-01-28T06:46:58;8.00;93.50
51007;DHT22;37034;47.886;-3.904;2023-01-28T06:49:24;8.00;93.50
51007;DHT22;37034;47.886;-3.904;2023-01-28T06:51:50;8.00;93.60
51007;DHT22;37034;47.886;-3.904;2023-01-28T06:54:15;8.00;93.50
51007;DHT22;37034;47.886;-3.904;2023-01-28T06:56:41;8.00;93.60
51007;DHT22;37034;47.886;-3.904;2023-01-28T06:59:07;8.10;93.50
51007;DHT22;37034;47.886;-3.904;2023-01-28T07:01:33;8.10;93.50
51007;DHT22;37034;47.886;-3.904;2023-01-28T07:03:58;8.10;93.50
51007;DHT22;37034;47.886;-3.904;2023-01-28T07:06:24;8.10;93.50
51007;DHT22;37034;47.886;-3.904;2023-01-28T07:08:50;8.10;93.60
51007;DHT22;37034;47.886;-3.904;2023-01-28T07:11:16;8.10;93.40
51007;DHT22;37034;47.886;-3.904;2023-01-28T07:13:42;8.10;93.40
51007;DHT22;37034;47.886;-3.904;2023-01-28T07:16:08;8.10;93.40
51007;DHT22;37034;47.886;-3.904;2023-01-28T07:18:33;8.10;93.50
51007;DHT22;37034;47.886;-3.904;2023-01-28T07:20:59;8.10;93.40
51007;DHT22;37034;47.886;-3.904;2023-01-28T07:23:25;8.10;93.40
51007;DHT22;37034;47.886;-3.904;2023-01-28T07:25:50;8.10;93.40
51007;DHT22;37034;47.886;-3.904;2023-01-28T07:28:16;8.20;93.40
51007;DHT22;37034;47.886;-3.904;2023-01-28T07:30:50;8.10;93.40
51007;DHT22;37034;47.886;-3.904;2023-01-28T07:33:16;8.10;93.40
51007;DHT22;37034;47.886;-3.904;2023-01-28T07:35:42;8.10;93.30
51007;DHT22;37034;47.886;-3.904;2023-01-28T07:38:08;8.10;93.30
51007;DHT22;37034;47.886;-3.904;2023-01-28T07:40:34;8.10;93.20
51007;DHT22;37034;47.886;-3.904;2023-01-28T07:43:00;8.10;93.20
51007;DHT22;37034;47.886;-3.904;2023-01-28T07:45:25;8.10;93.30
51007;DHT22;37034;47.886;-3.904;2023-01-28T07:47:57;8.10;93.10
51007;DHT22;37034;47.886;-3.904;2023-01-28T07:50:23;8.00;93.10
51007;DHT22;37034;47.886;-3.904;2023-01-28T07:52:48;8.00;93.00
51007;DHT22;37034;47.886;-3.904;2023-01-28T07:55:14;7.90;92.80
51007;DHT22;37034;47.886;-3.904;2023-01-28T07:57:51;7.90;92.70
51007;DHT22;37034;47.886;-3.904;2023-01-28T08:00:18;7.70;92.80
51007;DHT22;37034;47.886;-3.904;2023-01-28T08:02:44;7.60;92.80
51007;DHT22;37034;47.886;-3.904;2023-01-28T08:05:16;7.50;92.90
51007;DHT22;37034;47.886;-3.904;2023-01-28T08:07:41;7.50;92.90
51007;DHT22;37034;47.886;-3.904;2023-01-28T08:10:08;7.40;92.90
51007;DHT22;37034;47.886;-3.904;2023-01-28T08:12:34;7.40;93.00
51007;DHT22;37034;47.886;-3.904;2023-01-28T08:15:00;7.30;93.10
51007;DHT22;37034;47.886;-3.904;2023-01-28T08:17:26;7.30;93.20
51007;DHT22;37034;47.886;-3.904;2023-01-28T08:19:52;7.30;93.40
51007;DHT22;37034;47.886;-3.904;2023-01-28T08:22:18;7.30;93.50
51007;DHT22;37034;47.886;-3.904;2023-01-28T08:24:43;7.40;93.50
51007;DHT22;37034;47.886;-3.904;2023-01-28T08:27:09;7.40;93.50
51007;DHT22;37034;47.886;-3.904;2023-01-28T08:29:35;7.40;93.70
51007;DHT22;37034;47.886;-3.904;2023-01-28T08:32:00;7.50;93.70
51007;DHT22;37034;47.886;-3.904;2023-01-28T08:34:26;7.50;93.70
51007;DHT22;37034;47.886;-3.904;2023-01-28T08:36:51;7.60;93.90
51007;DHT22;37034;47.886;-3.904;2023-01-28T08:39:17;7.60;93.80
51007;DHT22;37034;47.886;-3.904;2023-01-28T08:41:43;7.70;93.80
51007;DHT22;37034;47.886;-3.904;2023-01-28T08:44:08;7.80;93.80
51007;DHT22;37034;47.886;-3.904;2023-01-28T08:46:34;7.90;93.80
51007;DHT22;37034;47.886;-3.904;2023-01-28T08:48:59;7.90;93.70
51007;DHT22;37034;47.886;-3.904;2023-01-28T08:51:25;8.00;93.70
51007;DHT22;37034;47.886;-3.904;2023-01-28T08:53:51;8.00;93.60
51007;DHT22;37034;47.886;-3.904;2023-01-28T08:56:16;8.10;93.60
51007;DHT22;37034;47.886;-3.904;2023-01-28T08:58:42;8.10;93.30
51007;DHT22;37034;47.886;-3.904;2023-01-28T09:01:09;8.10;93.10
51007;DHT22;37034;47.886;-3.904;2023-01-28T09:03:35;8.10;93.20
51007;DHT22;37034;47.886;-3.904;2023-01-28T09:06:02;8.10;93.10
51007;DHT22;37034;47.886;-3.904;2023-01-28T09:08:28;8.20;93.10
51007;DHT22;37034;47.886;-3.904;2023-01-28T09:10:57;8.20;93.10
51007;DHT22;37034;47.886;-3.904;2023-01-28T09:13:23;8.30;93.20
51007;DHT22;37034;47.886;-3.904;2023-01-28T09:15:49;8.40;93.20
51007;DHT22;37034;47.886;-3.904;2023-01-28T09:18:16;8.30;92.60
51007;DHT22;37034;47.886;-3.904;2023-01-28T09:20:42;8.40;92.80
51007;DHT22;37034;47.886;-3.904;2023-01-28T09:23:08;8.40;92.70
51007;DHT22;37034;47.886;-3.904;2023-01-28T09:25:35;8.40;92.40
51007;DHT22;37034;47.886;-3.904;2023-01-28T09:28:00;8.50;92.50
51007;DHT22;37034;47.886;-3.904;2023-01-28T09:30:26;8.50;92.40
51007;DHT22;37034;47.886;-3.904;2023-01-28T09:32:53;8.60;92.70
51007;DHT22;37034;47.886;-3.904;2023-01-28T09:35:20;8.70;92.40
51007;DHT22;37034;47.886;-3.904;2023-01-28T09:37:46;8.80;92.50
51007;DHT22;37034;47.886;-3.904;2023-01-28T09:40:18;8.80;92.60
51007;DHT22;37034;47.886;-3.904;2023-01-28T09:45:54;8.90;92.30
51007;DHT22;37034;47.886;-3.904;2023-01-28T09:48:31;9.00;92.30
51007;DHT22;37034;47.886;-3.904;2023-01-28T09:50:59;9.00;92.40
51007;DHT22;37034;47.886;-3.904;2023-01-28T09:53:30;9.10;92.50
51007;DHT22;37034;47.886;-3.904;2023-01-28T09:56:08;9.20;92.50
51007;DHT22;37034;47.886;-3.904;2023-01-28T09:58:35;9.10;92.30
51007;DHT22;37034;47.886;-3.904;2023-01-28T10:10:09;9.30;92.10
51007;DHT22;37034;47.886;-3.904;2023-01-28T10:15:36;9.40;92.40
51007;DHT22;37034;47.886;-3.904;2023-01-28T10:18:10;9.40;92.20
51007;DHT22;37034;47.886;-3.904;2023-01-28T10:20:53;9.50;92.00
51007;DHT22;37034;47.886;-3.904;2023-01-28T10:23:31;9.50;91.80
51007;DHT22;37034;47.886;-3.904;2023-01-28T10:26:04;9.50;91.80
51007;DHT22;37034;47.886;-3.904;2023-01-28T10:28:30;9.60;92.00
51007;DHT22;37034;47.886;-3.904;2023-01-28T10:30:57;9.60;91.70
51007;DHT22;37034;47.886;-3.904;2023-01-28T10:33:38;9.70;91.90
51007;DHT22;37034;47.886;-3.904;2023-01-28T10:36:05;9.70;91.70
51007;DHT22;37034;47.886;-3.904;2023-01-28T10:38:32;9.80;91.40
51007;DHT22;37034;47.886;-3.904;2023-01-28T10:41:01;9.70;91.30
51007;DHT22;37034;47.886;-3.904;2023-01-28T10:43:32;9.60;91.20
51007;DHT22;37034;47.886;-3.904;2023-01-28T10:46:06;9.70;91.50
51007;DHT22;37034;47.886;-3.904;2023-01-28T10:48:37;9.80;91.50
51007;DHT22;37034;47.886;-3.904;2023-01-28T10:51:07;9.90;91.60
51007;DHT22;37034;47.886;-3.904;2023-01-28T10:53:43;10.00;91.50
51007;DHT22;37034;47.886;-3.904;2023-01-28T10:58:47;9.80;90.60
51007;DHT22;37034;47.886;-3.904;2023-01-28T11:01:14;9.90;90.40
51007;DHT22;37034;47.886;-3.904;2023-01-28T11:03:53;9.90;90.80
51007;DHT22;37034;47.886;-3.904;2023-01-28T11:06:25;9.90;90.50
51007;DHT22;37034;47.886;-3.904;2023-01-28T11:08:51;9.90;90.20
51007;DHT22;37034;47.886;-3.904;2023-01-28T11:11:26;10.00;90.80
51007;DHT22;37034;47.886;-3.904;2023-01-28T11:13:53;10.20;90.70
51007;DHT22;37034;47.886;-3.904;2023-01-28T11:16:20;10.10;90.30
51007;DHT22;37034;47.886;-3.904;2023-01-28T11:18:53;10.20;90.60
51007;DHT22;37034;47.886;-3.904;2023-01-28T11:21:29;10.20;90.60
51007;DHT22;37034;47.886;-3.904;2023-01-28T11:23:59;10.20;90.70
51007;DHT22;37034;47.886;-3.904;2023-01-28T11:26:29;10.30;90.40
51007;DHT22;37034;47.886;-3.904;2023-01-28T11:28:56;10.00;90.20
51007;DHT22;37034;47.886;-3.904;2023-01-28T11:31:22;10.10;90.70
51007;DHT22;37034;47.886;-3.904;2023-01-28T11:33:56;10.30;90.60
51007;DHT22;37034;47.886;-3.904;2023-01-28T11:36:25;10.40;90.10
51007;DHT22;37034;47.886;-3.904;2023-01-28T11:38:52;10.30;90.10
51007;DHT22;37034;47.886;-3.904;2023-01-28T11:41:18;10.00;89.20
51007;DHT22;37034;47.886;-3.904;2023-01-28T11:43:48;10.00;90.10
51007;DHT22;37034;47.886;-3.904;2023-01-28T11:51:37;10.30;89.50
51007;DHT22;37034;47.886;-3.904;2023-01-28T12:02:29;10.20;89.70
51007;DHT22;37034;47.886;-3.904;2023-01-28T12:05:28;10.50;90.10
51007;DHT22;37034;47.886;-3.904;2023-01-28T12:14:06;10.20;87.70
51007;DHT22;37034;47.886;-3.904;2023-01-28T12:22:47;10.60;87.60
51007;DHT22;37034;47.886;-3.904;2023-01-28T12:25:43;10.30;88.40
51007;DHT22;37034;47.886;-3.904;2023-01-28T12:31:31;10.20;87.90
51007;DHT22;37034;47.886;-3.904;2023-01-28T12:37:20;10.00;88.00
51007;DHT22;37034;47.886;-3.904;2023-01-28T12:43:00;10.20;88.30
51007;DHT22;37034;47.886;-3.904;2023-01-28T12:45:38;10.40;87.80
51007;DHT22;37034;47.886;-3.904;2023-01-28T12:48:18;10.50;87.50
51007;DHT22;37034;47.886;-3.904;2023-01-28T12:50:54;10.60;87.60
51007;DHT22;37034;47.886;-3.904;2023-01-28T12:53:39;10.80;86.90
51007;DHT22;37034;47.886;-3.904;2023-01-28T12:58:54;10.90;86.50
51007;DHT22;37034;47.886;-3.904;2023-01-28T13:01:36;10.70;86.20
51007;DHT22;37034;47.886;-3.904;2023-01-28T13:04:08;10.80;86.00
51007;DHT22;37034;47.886;-3.904;2023-01-28T13:06:45;10.70;86.00
51007;DHT22;37034;47.886;-3.904;2023-01-28T13:09:17;10.90;86.70
51007;DHT22;37034;47.886;-3.904;2023-01-28T13:11:44;10.70;87.60
51007;DHT22;37034;47.886;-3.904;2023-01-28T13:14:11;10.90;86.80
51007;DHT22;37034;47.886;-3.904;2023-01-28T13:16:38;10.80;85.10
51007;DHT22;37034;47.886;-3.904;2023-01-28T13:19:20;10.60;85.50
51007;DHT22;37034;47.886;-3.904;2023-01-28T13:21:47;10.50;85.90
51007;DHT22;37034;47.886;-3.904;2023-01-28T13:26:45;10.30;85.30
51007;DHT22;37034;47.886;-3.904;2023-01-28T13:31:42;9.90;85.50
51007;DHT22;37034;47.886;-3.904;2023-01-28T13:36:53;10.30;86.70
51007;DHT22;37034;47.886;-3.904;2023-01-28T13:39:22;10.30;85.50
51007;DHT22;37034;47.886;-3.904;2023-01-28T13:41:54;10.10;87.00
51007;DHT22;37034;47.886;-3.904;2023-01-28T13:44:30;10.30;87.60
51007;DHT22;37034;47.886;-3.904;2023-01-28T13:47:13;10.50;86.90
51007;DHT22;37034;47.886;-3.904;2023-01-28T13:52:13;10.80;86.90
51007;DHT22;37034;47.886;-3.904;2023-01-28T13:54:50;11.10;85.60
51007;DHT22;37034;47.886;-3.904;2023-01-28T14:00:42;11.30;85.80
51007;DHT22;37034;47.886;-3.904;2023-01-28T14:10:37;11.10;84.90
51007;DHT22;37034;47.886;-3.904;2023-01-28T14:18:43;11.20;84.70
51007;DHT22;37034;47.886;-3.904;2023-01-28T14:21:16;11.20;84.80
51007;DHT22;37034;47.886;-3.904;2023-01-28T14:23:50;11.10;84.10
51007;DHT22;37034;47.886;-3.904;2023-01-28T14:32:15;11.10;83.50
51007;DHT22;37034;47.886;-3.904;2023-01-28T14:34:42;11.10;84.60
51007;DHT22;37034;47.886;-3.904;2023-01-28T14:37:15;11.20;84.80
51007;DHT22;37034;47.886;-3.904;2023-01-28T14:39:45;11.10;83.60
51007;DHT22;37034;47.886;-3.904;2023-01-28T14:42:30;11.10;84.50
51007;DHT22;37034;47.886;-3.904;2023-01-28T14:48:01;10.90;84.00
51007;DHT22;37034;47.886;-3.904;2023-01-28T14:58:29;10.90;84.70
51007;DHT22;37034;47.886;-3.904;2023-01-28T15:00:59;10.90;84.60
51007;DHT22;37034;47.886;-3.904;2023-01-28T15:03:26;10.90;84.60
51007;DHT22;37034;47.886;-3.904;2023-01-28T15:06:13;10.80;84.00
51007;DHT22;37034;47.886;-3.904;2023-01-28T15:08:39;10.80;84.80
51007;DHT22;37034;47.886;-3.904;2023-01-28T15:11:08;10.90;85.10
51007;DHT22;37034;47.886;-3.904;2023-01-28T15:13:40;11.10;84.80
51007;DHT22;37034;47.886;-3.904;2023-01-28T15:16:35;11.00;84.20
51007;DHT22;37034;47.886;-3.904;2023-01-28T15:19:01;11.00;83.90
51007;DHT22;37034;47.886;-3.904;2023-01-28T15:21:28;10.80;84.00
51007;DHT22;37034;47.886;-3.904;2023-01-28T15:23:56;10.90;83.50
51007;DHT22;37034;47.886;-3.904;2023-01-28T15:28:51;10.90;84.60
51007;DHT22;37034;47.886;-3.904;2023-01-28T15:31:27;11.00;84.00
51007;DHT22;37034;47.886;-3.904;2023-01-28T15:34:12;10.90;84.00
51007;DHT22;37034;47.886;-3.904;2023-01-28T15:36:38;10.90;83.70
51007;DHT22;37034;47.886;-3.904;2023-01-28T15:39:11;10.70;83.10
51007;DHT22;37034;47.886;-3.904;2023-01-28T15:41:39;10.70;83.80
51007;DHT22;37034;47.886;-3.904;2023-01-28T15:44:17;10.70;83.40
51007;DHT22;37034;47.886;-3.904;2023-01-28T15:46:44;10.70;83.70
51007;DHT22;37034;47.886;-3.904;2023-01-28T15:49:13;10.60;83.30
51007;DHT22;37034;47.886;-3.904;2023-01-28T15:51:39;10.60;83.60
51007;DHT22;37034;47.886;-3.904;2023-01-28T15:54:07;10.70;83.60
51007;DHT22;37034;47.886;-3.904;2023-01-28T15:56:34;10.80;83.60
51007;DHT22;37034;47.886;-3.904;2023-01-28T15:59:27;10.70;83.50
51007;DHT22;37034;47.886;-3.904;2023-01-28T16:02:18;10.60;83.70
51007;DHT22;37034;47.886;-3.904;2023-01-28T16:04:55;10.70;83.40
51007;DHT22;37034;47.886;-3.904;2023-01-28T16:07:21;10.80;83.50
51007;DHT22;37034;47.886;-3.904;2023-01-28T16:09:50;10.70;83.30
51007;DHT22;37034;47.886;-3.904;2023-01-28T16:12:17;10.50;83.10
51007;DHT22;37034;47.886;-3.904;2023-01-28T16:14:56;10.50;83.60
51007;DHT22;37034;47.886;-3.904;2023-01-28T16:17:29;10.50;83.40
51007;DHT22;37034;47.886;-3.904;2023-01-28T16:20:34;10.50;83.00
51007;DHT22;37034;47.886;-3.904;2023-01-28T16:23:01;10.40;83.10
51007;DHT22;37034;47.886;-3.904;2023-01-28T16:27:54;10.30;82.50
51007;DHT22;37034;47.886;-3.904;2023-01-28T16:30:19;10.10;83.10
51007;DHT22;37034;47.886;-3.904;2023-01-28T16:32:45;10.20;83.50
51007;DHT22;37034;47.886;-3.904;2023-01-28T16:35:23;10.10;83.20
51007;DHT22;37034;47.886;-3.904;2023-01-28T16:37:50;10.00;83.30
51007;DHT22;37034;47.886;-3.904;2023-01-28T16:40:22;9.90;83.40
51007;DHT22;37034;47.886;-3.904;2023-01-28T16:42:48;9.90;83.30
51007;DHT22;37034;47.886;-3.904;2023-01-28T16:45:22;9.90;83.20
51007;DHT22;37034;47.886;-3.904;2023-01-28T16:47:48;9.80;83.70
51007;DHT22;37034;47.886;-3.904;2023-01-28T16:50:16;9.80;83.70
51007;DHT22;37034;47.886;-3.904;2023-01-28T16:52:44;9.80;83.80
51007;DHT22;37034;47.886;-3.904;2023-01-28T16:55:16;9.80;83.80
51007;DHT22;37034;47.886;-3.904;2023-01-28T16:57:43;9.90;84.10
51007;DHT22;37034;47.886;-3.904;2023-01-28T17:00:23;10.10;83.90
51007;DHT22;37034;47.886;-3.904;2023-01-28T17:02:53;10.10;83.80
51007;DHT22;37034;47.886;-3.904;2023-01-28T17:05:20;10.00;83.30
51007;DHT22;37034;47.886;-3.904;2023-01-28T17:07:46;9.90;83.80
51007;DHT22;37034;47.886;-3.904;2023-01-28T17:10:13;9.90;83.80
51007;DHT22;37034;47.886;-3.904;2023-01-28T17:12:39;9.90;83.90
51007;DHT22;37034;47.886;-3.904;2023-01-28T17:15:05;10.00;83.90
51007;DHT22;37034;47.886;-3.904;2023-01-28T17:17:32;10.10;83.90
51007;DHT22;37034;47.886;-3.904;2023-01-28T17:19:57;10.10;83.90
51007;DHT22;37034;47.886;-3.904;2023-01-28T17:22:23;10.20;84.10
51007;DHT22;37034;47.886;-3.904;2023-01-28T17:24:49;10.20;84.00
51007;DHT22;37034;47.886;-3.904;2023-01-28T17:27:14;10.10;83.80
51007;DHT22;37034;47.886;-3.904;2023-01-28T17:29:40;10.10;84.00
51007;DHT22;37034;47.886;-3.904;2023-01-28T17:32:06;10.10;83.80
51007;DHT22;37034;47.886;-3.904;2023-01-28T17:34:32;10.00;83.50
51007;DHT22;37034;47.886;-3.904;2023-01-28T17:36:57;10.00;84.00
51007;DHT22;37034;47.886;-3.904;2023-01-28T17:39:23;10.00;83.90
51007;DHT22;37034;47.886;-3.904;2023-01-28T17:41:48;10.00;84.10